YSNW/NOA METAR and TAF weather

Enter ICAO airport designator
Station Type Date Time Source
YSNW METAR 2021/09/23 17:00 UTC NOAA

YSNW 231700Z AUTO 31009KT 9999 // NCD 15/09 Q1013


Station Type Date Time Source
YSNW Decoded METAR 2021/09/23 17:00 UTC NOAA

Nowra Ran Air Station, Australia (YSNW) 34-57S 150-32E 110M
Sep 23, 2021 - 01:00 PM EDT / 2021.09.23 1700 UTC
Wind: from the NW (310 degrees) at 10 MPH (9 KT):0
Visibility: greater than 7 mile(s):0
Temperature: 59 F (15 C)
Dew Point: 48 F (9 C)
Relative Humidity: 67%
Pressure (altimeter): 29.91 in. Hg (1013 hPa)
ob: YSNW 231700Z AUTO 31009KT 9999 // NCD 15/09 Q1013
cycle: 17

Station Type Date Time Source
YSNW TAF UTC NOAA

Error!

Example: see airport list